sensor_id;sensor_type;location;lat;lon;timestamp;P1;durP1;ratioP1;P2;durP2;ratioP2
10309;SDS011;5200;43.236;27.986;2023-07-20T00:01:38;5.80;;;4.85;;
10309;SDS011;5200;43.236;27.986;2023-07-20T00:04:09;4.90;;;4.40;;
10309;SDS011;5200;43.236;27.986;2023-07-20T00:06:36;10.23;;;5.43;;
10309;SDS011;5200;43.236;27.986;2023-07-20T00:09:05;6.68;;;4.65;;
10309;SDS011;5200;43.236;27.986;2023-07-20T00:11:35;7.82;;;4.45;;
10309;SDS011;5200;43.236;27.986;2023-07-20T00:14:02;5.82;;;4.80;;
10309;SDS011;5200;43.236;27.986;2023-07-20T00:16:31;7.90;;;4.40;;
10309;SDS011;5200;43.236;27.986;2023-07-20T00:18:58;5.93;;;4.30;;
10309;SDS011;5200;43.236;27.986;2023-07-20T00:21:25;5.30;;;4.78;;
10309;SDS011;5200;43.236;27.986;2023-07-20T00:23:52;4.55;;;4.10;;
10309;SDS011;5200;43.236;27.986;2023-07-20T00:26:19;4.80;;;4.30;;
10309;SDS011;5200;43.236;27.986;2023-07-20T00:28:46;4.57;;;4.18;;
10309;SDS011;5200;43.236;27.986;2023-07-20T00:31:14;5.05;;;4.38;;
10309;SDS011;5200;43.236;27.986;2023-07-20T00:33:42;7.63;;;4.60;;
10309;SDS011;5200;43.236;27.986;2023-07-20T00:36:10;6.20;;;4.85;;
10309;SDS011;5200;43.236;27.986;2023-07-20T00:38:40;5.47;;;4.57;;
10309;SDS011;5200;43.236;27.986;2023-07-20T00:41:08;6.00;;;4.85;;
10309;SDS011;5200;43.236;27.986;2023-07-20T00:43:35;5.20;;;4.10;;
10309;SDS011;5200;43.236;27.986;2023-07-20T00:46:01;5.13;;;4.50;;
10309;SDS011;5200;43.236;27.986;2023-07-20T00:48:29;7.57;;;4.65;;
10309;SDS011;5200;43.236;27.986;2023-07-20T00:50:57;6.28;;;5.10;;
10309;SDS011;5200;43.236;27.986;2023-07-20T00:53:25;6.20;;;4.70;;
10309;SDS011;5200;43.236;27.986;2023-07-20T00:55:53;5.82;;;4.90;;
10309;SDS011;5200;43.236;27.986;2023-07-20T00:58:20;9.13;;;4.78;;
10309;SDS011;5200;43.236;27.986;2023-07-20T01:00:47;7.22;;;4.65;;
10309;SDS011;5200;43.236;27.986;2023-07-20T01:03:14;6.70;;;4.80;;
10309;SDS011;5200;43.236;27.986;2023-07-20T01:05:42;5.75;;;4.65;;
10309;SDS011;5200;43.236;27.986;2023-07-20T01:08:17;10.45;;;4.30;;
10309;SDS011;5200;43.236;27.986;2023-07-20T01:10:56;5.70;;;4.47;;
10309;SDS011;5200;43.236;27.986;2023-07-20T01:13:27;4.63;;;4.22;;
10309;SDS011;5200;43.236;27.986;2023-07-20T01:15:56;7.38;;;5.00;;
10309;SDS011;5200;43.236;27.986;2023-07-20T01:18:25;8.50;;;4.60;;
10309;SDS011;5200;43.236;27.986;2023-07-20T01:20:51;8.13;;;4.53;;
10309;SDS011;5200;43.236;27.986;2023-07-20T01:23:31;4.65;;;4.18;;
10309;SDS011;5200;43.236;27.986;2023-07-20T01:29:12;11.25;;;4.78;;
10309;SDS011;5200;43.236;27.986;2023-07-20T01:31:50;5.20;;;4.20;;
10309;SDS011;5200;43.236;27.986;2023-07-20T01:34:19;5.05;;;4.00;;
10309;SDS011;5200;43.236;27.986;2023-07-20T01:36:49;11.02;;;4.60;;
10309;SDS011;5200;43.236;27.986;2023-07-20T01:39:18;5.10;;;4.32;;
10309;SDS011;5200;43.236;27.986;2023-07-20T01:41:47;4.75;;;4.03;;
10309;SDS011;5200;43.236;27.986;2023-07-20T01:44:14;3.80;;;3.50;;
10309;SDS011;5200;43.236;27.986;2023-07-20T01:46:41;5.03;;;4.20;;
10309;SDS011;5200;43.236;27.986;2023-07-20T01:49:09;4.78;;;3.90;;
10309;SDS011;5200;43.236;27.986;2023-07-20T01:51:36;4.05;;;3.72;;
10309;SDS011;5200;43.236;27.986;2023-07-20T01:54:03;4.40;;;3.80;;
10309;SDS011;5200;43.236;27.986;2023-07-20T01:56:30;5.43;;;4.00;;
10309;SDS011;5200;43.236;27.986;2023-07-20T01:58:56;12.85;;;4.32;;
10309;SDS011;5200;43.236;27.986;2023-07-20T02:01:23;8.30;;;3.97;;
10309;SDS011;5200;43.236;27.986;2023-07-20T02:03:50;4.35;;;3.88;;
10309;SDS011;5200;43.236;27.986;2023-07-20T02:06:18;6.40;;;4.10;;
10309;SDS011;5200;43.236;27.986;2023-07-20T02:08:45;4.72;;;4.25;;
10309;SDS011;5200;43.236;27.986;2023-07-20T02:11:12;4.38;;;3.95;;
10309;SDS011;5200;43.236;27.986;2023-07-20T02:13:39;7.78;;;4.30;;
10309;SDS011;5200;43.236;27.986;2023-07-20T02:16:06;9.75;;;4.40;;
10309;SDS011;5200;43.236;27.986;2023-07-20T02:18:33;11.48;;;4.35;;
10309;SDS011;5200;43.236;27.986;2023-07-20T02:21:01;4.50;;;4.10;;
10309;SDS011;5200;43.236;27.986;2023-07-20T02:23:30;11.07;;;4.57;;
10309;SDS011;5200;43.236;27.986;2023-07-20T02:25:57;6.43;;;4.32;;
10309;SDS011;5200;43.236;27.986;2023-07-20T02:28:23;6.47;;;4.28;;
10309;SDS011;5200;43.236;27.986;2023-07-20T02:30:50;6.95;;;4.63;;
10309;SDS011;5200;43.236;27.986;2023-07-20T02:33:19;5.47;;;4.50;;
10309;SDS011;5200;43.236;27.986;2023-07-20T02:35:46;5.32;;;4.72;;
10309;SDS011;5200;43.236;27.986;2023-07-20T02:38:13;9.02;;;4.50;;
10309;SDS011;5200;43.236;27.986;2023-07-20T02:40:41;9.38;;;5.07;;
10309;SDS011;5200;43.236;27.986;2023-07-20T02:43:08;7.13;;;5.25;;
10309;SDS011;5200;43.236;27.986;2023-07-20T02:45:35;6.35;;;4.68;;
10309;SDS011;5200;43.236;27.986;2023-07-20T02:48:06;13.73;;;4.88;;
10309;SDS011;5200;43.236;27.986;2023-07-20T02:50:34;6.85;;;4.95;;
10309;SDS011;5200;43.236;27.986;2023-07-20T02:53:01;6.60;;;4.40;;
10309;SDS011;5200;43.236;27.986;2023-07-20T02:55:28;14.68;;;5.22;;
10309;SDS011;5200;43.236;27.986;2023-07-20T02:57:56;11.38;;;4.97;;
10309;SDS011;5200;43.236;27.986;2023-07-20T03:00:23;9.02;;;4.65;;
10309;SDS011;5200;43.236;27.986;2023-07-20T03:02:50;6.07;;;4.65;;
10309;SDS011;5200;43.236;27.986;2023-07-20T03:05:20;7.85;;;5.43;;
10309;SDS011;5200;43.236;27.986;2023-07-20T03:07:47;7.93;;;5.57;;
10309;SDS011;5200;43.236;27.986;2023-07-20T03:10:15;14.88;;;5.63;;
10309;SDS011;5200;43.236;27.986;2023-07-20T03:12:42;7.10;;;4.93;;
10309;SDS011;5200;43.236;27.986;2023-07-20T03:15:11;10.27;;;4.53;;
10309;SDS011;5200;43.236;27.986;2023-07-20T03:17:37;8.98;;;4.95;;
10309;SDS011;5200;43.236;27.986;2023-07-20T03:20:05;15.00;;;4.97;;
10309;SDS011;5200;43.236;27.986;2023-07-20T03:22:34;7.35;;;5.47;;
10309;SDS011;5200;43.236;27.986;2023-07-20T03:25:01;6.72;;;4.65;;
10309;SDS011;5200;43.236;27.986;2023-07-20T03:27:29;12.70;;;4.47;;
10309;SDS011;5200;43.236;27.986;2023-07-20T03:29:56;11.90;;;5.05;;
10309;SDS011;5200;43.236;27.986;2023-07-20T03:32:24;13.15;;;4.35;;
10309;SDS011;5200;43.236;27.986;2023-07-20T03:34:51;13.18;;;4.95;;
10309;SDS011;5200;43.236;27.986;2023-07-20T03:37:18;15.02;;;4.93;;
10309;SDS011;5200;43.236;27.986;2023-07-20T03:39:45;10.25;;;5.10;;
10309;SDS011;5200;43.236;27.986;2023-07-20T03:42:11;9.60;;;4.75;;
10309;SDS011;5200;43.236;27.986;2023-07-20T03:44:38;12.48;;;4.55;;
10309;SDS011;5200;43.236;27.986;2023-07-20T03:47:05;8.50;;;4.10;;
10309;SDS011;5200;43.236;27.986;2023-07-20T03:49:34;12.23;;;4.85;;
10309;SDS011;5200;43.236;27.986;2023-07-20T03:52:01;10.10;;;4.85;;
10309;SDS011;5200;43.236;27.986;2023-07-20T03:54:28;7.68;;;4.53;;
10309;SDS011;5200;43.236;27.986;2023-07-20T03:56:55;8.80;;;4.68;;
10309;SDS011;5200;43.236;27.986;2023-07-20T03:59:22;13.20;;;4.93;;
10309;SDS011;5200;43.236;27.986;2023-07-20T04:01:48;9.77;;;4.70;;
10309;SDS011;5200;43.236;27.986;2023-07-20T04:04:15;11.57;;;5.03;;
10309;SDS011;5200;43.236;27.986;2023-07-20T04:06:43;6.55;;;4.57;;
10309;SDS011;5200;43.236;27.986;2023-07-20T04:09:11;6.90;;;4.78;;
10309;SDS011;5200;43.236;27.986;2023-07-20T04:11:38;6.60;;;5.05;;
10309;SDS011;5200;43.236;27.986;2023-07-20T04:14:05;8.20;;;5.30;;
10309;SDS011;5200;43.236;27.986;2023-07-20T04:16:32;10.57;;;4.90;;
10309;SDS011;5200;43.236;27.986;2023-07-20T04:18:59;9.45;;;4.78;;
10309;SDS011;5200;43.236;27.986;2023-07-20T04:21:26;10.63;;;4.88;;
10309;SDS011;5200;43.236;27.986;2023-07-20T04:23:55;14.18;;;5.07;;
10309;SDS011;5200;43.236;27.986;2023-07-20T04:26:22;10.25;;;5.22;;
10309;SDS011;5200;43.236;27.986;2023-07-20T04:28:49;8.55;;;4.88;;
10309;SDS011;5200;43.236;27.986;2023-07-20T04:31:16;12.75;;;4.80;;
10309;SDS011;5200;43.236;27.986;2023-07-20T04:33:43;12.82;;;5.43;;
10309;SDS011;5200;43.236;27.986;2023-07-20T04:36:10;20.50;;;5.35;;
10309;SDS011;5200;43.236;27.986;2023-07-20T04:38:38;5.50;;;4.75;;
10309;SDS011;5200;43.236;27.986;2023-07-20T04:41:07;15.98;;;4.55;;
10309;SDS011;5200;43.236;27.986;2023-07-20T04:43:33;11.55;;;5.38;;
10309;SDS011;5200;43.236;27.986;2023-07-20T04:46:00;13.68;;;6.30;;
10309;SDS011;5200;43.236;27.986;2023-07-20T04:48:27;20.05;;;6.47;;
10309;SDS011;5200;43.236;27.986;2023-07-20T04:50:54;10.38;;;5.20;;
10309;SDS011;5200;43.236;27.986;2023-07-20T04:53:20;18.27;;;5.32;;
10309;SDS011;5200;43.236;27.986;2023-07-20T04:55:48;14.65;;;5.20;;
10309;SDS011;5200;43.236;27.986;2023-07-20T04:58:18;11.93;;;5.20;;
10309;SDS011;5200;43.236;27.986;2023-07-20T05:00:45;16.50;;;4.97;;
10309;SDS011;5200;43.236;27.986;2023-07-20T05:03:12;14.68;;;4.90;;
10309;SDS011;5200;43.236;27.986;2023-07-20T05:05:40;18.10;;;4.75;;
10309;SDS011;5200;43.236;27.986;2023-07-20T05:08:07;10.65;;;4.72;;
10309;SDS011;5200;43.236;27.986;2023-07-20T05:10:34;15.45;;;5.50;;
10309;SDS011;5200;43.236;27.986;2023-07-20T05:13:01;9.70;;;4.72;;
10309;SDS011;5200;43.236;27.986;2023-07-20T05:15:32;15.98;;;4.68;;
10309;SDS011;5200;43.236;27.986;2023-07-20T05:17:59;14.35;;;4.65;;
10309;SDS011;5200;43.236;27.986;2023-07-20T05:20:26;17.38;;;4.50;;
10309;SDS011;5200;43.236;27.986;2023-07-20T05:25:25;14.95;;;4.63;;
10309;SDS011;5200;43.236;27.986;2023-07-20T05:27:52;13.75;;;4.78;;
10309;SDS011;5200;43.236;27.986;2023-07-20T05:30:20;19.77;;;4.90;;
10309;SDS011;5200;43.236;27.986;2023-07-20T05:32:48;12.15;;;4.80;;
10309;SDS011;5200;43.236;27.986;2023-07-20T05:35:17;15.50;;;4.93;;
10309;SDS011;5200;43.236;27.986;2023-07-20T05:37:44;18.60;;;5.15;;
10309;SDS011;5200;43.236;27.986;2023-07-20T05:40:11;28.08;;;5.72;;
10309;SDS011;5200;43.236;27.986;2023-07-20T05:42:39;11.57;;;4.53;;
10309;SDS011;5200;43.236;27.986;2023-07-20T05:45:06;23.17;;;5.53;;
10309;SDS011;5200;43.236;27.986;2023-07-20T05:47:33;12.57;;;4.55;;
10309;SDS011;5200;43.236;27.986;2023-07-20T05:50:02;22.45;;;4.57;;
10309;SDS011;5200;43.236;27.986;2023-07-20T05:52:29;10.27;;;4.15;;
10309;SDS011;5200;43.236;27.986;2023-07-20T05:54:56;16.13;;;4.82;;
10309;SDS011;5200;43.236;27.986;2023-07-20T05:57:26;27.30;;;5.45;;
10309;SDS011;5200;43.236;27.986;2023-07-20T05:59:52;12.15;;;4.72;;
10309;SDS011;5200;43.236;27.986;2023-07-20T06:02:23;16.38;;;5.22;;
10309;SDS011;5200;43.236;27.986;2023-07-20T06:04:50;17.45;;;5.22;;
10309;SDS011;5200;43.236;27.986;2023-07-20T06:07:29;16.10;;;4.70;;
10309;SDS011;5200;43.236;27.986;2023-07-20T06:09:56;16.33;;;4.38;;
10309;SDS011;5200;43.236;27.986;2023-07-20T06:12:23;12.20;;;4.55;;
10309;SDS011;5200;43.236;27.986;2023-07-20T06:14:50;26.42;;;5.15;;
10309;SDS011;5200;43.236;27.986;2023-07-20T06:17:17;16.75;;;5.40;;
10309;SDS011;5200;43.236;27.986;2023-07-20T06:19:43;17.02;;;4.63;;
10309;SDS011;5200;43.236;27.986;2023-07-20T06:22:10;18.35;;;5.47;;
10309;SDS011;5200;43.236;27.986;2023-07-20T06:24:38;11.35;;;4.82;;
10309;SDS011;5200;43.236;27.986;2023-07-20T06:27:05;9.70;;;4.38;;
10309;SDS011;5200;43.236;27.986;2023-07-20T06:29:32;10.63;;;4.57;;
10309;SDS011;5200;43.236;27.986;2023-07-20T06:31:59;16.08;;;4.20;;
10309;SDS011;5200;43.236;27.986;2023-07-20T06:34:26;23.20;;;4.80;;
10309;SDS011;5200;43.236;27.986;2023-07-20T06:36:53;20.90;;;3.40;;
10309;SDS011;5200;43.236;27.986;2023-07-20T06:39:20;11.18;;;3.15;;
10309;SDS011;5200;43.236;27.986;2023-07-20T06:41:48;15.95;;;3.88;;
10309;SDS011;5200;43.236;27.986;2023-07-20T06:44:17;10.75;;;3.10;;
10309;SDS011;5200;43.236;27.986;2023-07-20T06:46:43;13.18;;;3.53;;
10309;SDS011;5200;43.236;27.986;2023-07-20T06:49:29;10.23;;;3.10;;
10309;SDS011;5200;43.236;27.986;2023-07-20T06:54:52;11.38;;;2.80;;
10309;SDS011;5200;43.236;27.986;2023-07-20T07:00:24;10.15;;;2.88;;
10309;SDS011;5200;43.236;27.986;2023-07-20T07:02:51;13.48;;;2.95;;
10309;SDS011;5200;43.236;27.986;2023-07-20T07:05:17;9.13;;;3.35;;
10309;SDS011;5200;43.236;27.986;2023-07-20T07:13:24;9.70;;;2.90;;
10309;SDS011;5200;43.236;27.986;2023-07-20T07:15:51;10.45;;;2.97;;
10309;SDS011;5200;43.236;27.986;2023-07-20T07:18:18;9.80;;;2.90;;
10309;SDS011;5200;43.236;27.986;2023-07-20T07:20:51;7.28;;;3.00;;
10309;SDS011;5200;43.236;27.986;2023-07-20T07:23:18;9.65;;;2.83;;
10309;SDS011;5200;43.236;27.986;2023-07-20T07:25:47;10.10;;;2.72;;
10309;SDS011;5200;43.236;27.986;2023-07-20T07:28:15;9.75;;;2.97;;
10309;SDS011;5200;43.236;27.986;2023-07-20T07:30:43;11.93;;;3.28;;
10309;SDS011;5200;43.236;27.986;2023-07-20T07:33:10;7.03;;;2.72;;
10309;SDS011;5200;43.236;27.986;2023-07-20T07:35:37;8.52;;;2.78;;
10309;SDS011;5200;43.236;27.986;2023-07-20T07:38:05;8.63;;;3.03;;
10309;SDS011;5200;43.236;27.986;2023-07-20T07:40:32;10.43;;;3.08;;
10309;SDS011;5200;43.236;27.986;2023-07-20T07:42:59;10.32;;;3.13;;
10309;SDS011;5200;43.236;27.986;2023-07-20T07:45:26;9.48;;;3.00;;
10309;SDS011;5200;43.236;27.986;2023-07-20T07:47:54;11.82;;;3.30;;
10309;SDS011;5200;43.236;27.986;2023-07-20T07:50:21;12.10;;;3.00;;
10309;SDS011;5200;43.236;27.986;2023-07-20T07:52:48;8.40;;;2.88;;
10309;SDS011;5200;43.236;27.986;2023-07-20T07:55:15;8.95;;;3.22;;
10309;SDS011;5200;43.236;27.986;2023-07-20T07:57:43;7.53;;;3.10;;
10309;SDS011;5200;43.236;27.986;2023-07-20T08:00:10;10.10;;;3.53;;
10309;SDS011;5200;43.236;27.986;2023-07-20T08:02:40;8.30;;;3.00;;
10309;SDS011;5200;43.236;27.986;2023-07-20T08:05:09;6.30;;;2.63;;
10309;SDS011;5200;43.236;27.986;2023-07-20T08:07:36;8.32;;;3.05;;
10309;SDS011;5200;43.236;27.986;2023-07-20T08:10:03;8.02;;;3.05;;
10309;SDS011;5200;43.236;27.986;2023-07-20T08:12:31;6.20;;;2.80;;
10309;SDS011;5200;43.236;27.986;2023-07-20T08:15:01;7.00;;;2.70;;
10309;SDS011;5200;43.236;27.986;2023-07-20T08:17:29;6.38;;;2.45;;
10309;SDS011;5200;43.236;27.986;2023-07-20T08:19:55;8.50;;;2.55;;
10309;SDS011;5200;43.236;27.986;2023-07-20T08:22:24;7.38;;;2.70;;
10309;SDS011;5200;43.236;27.986;2023-07-20T08:24:51;10.23;;;2.90;;
10309;SDS011;5200;43.236;27.986;2023-07-20T08:27:18;11.27;;;3.05;;
10309;SDS011;5200;43.236;27.986;2023-07-20T08:29:45;10.95;;;3.13;;
10309;SDS011;5200;43.236;27.986;2023-07-20T08:32:12;4.55;;;2.50;;
10309;SDS011;5200;43.236;27.986;2023-07-20T08:34:39;12.70;;;2.55;;
10309;SDS011;5200;43.236;27.986;2023-07-20T08:37:06;6.82;;;2.80;;
10309;SDS011;5200;43.236;27.986;2023-07-20T08:39:36;7.60;;;3.08;;
10309;SDS011;5200;43.236;27.986;2023-07-20T08:42:04;8.32;;;2.97;;
10309;SDS011;5200;43.236;27.986;2023-07-20T08:44:32;9.70;;;3.00;;
10309;SDS011;5200;43.236;27.986;2023-07-20T08:47:00;9.63;;;2.70;;
10309;SDS011;5200;43.236;27.986;2023-07-20T08:49:29;5.93;;;2.38;;
10309;SDS011;5200;43.236;27.986;2023-07-20T08:51:56;7.07;;;2.60;;
10309;SDS011;5200;43.236;27.986;2023-07-20T08:54:24;8.48;;;2.80;;
10309;SDS011;5200;43.236;27.986;2023-07-20T08:56:56;7.65;;;2.85;;
10309;SDS011;5200;43.236;27.986;2023-07-20T08:59:30;11.20;;;3.20;;
10309;SDS011;5200;43.236;27.986;2023-07-20T09:01:57;8.20;;;3.40;;
10309;SDS011;5200;43.236;27.986;2023-07-20T09:04:25;9.20;;;3.00;;
10309;SDS011;5200;43.236;27.986;2023-07-20T09:06:52;10.02;;;2.90;;
10309;SDS011;5200;43.236;27.986;2023-07-20T09:09:19;6.60;;;3.00;;
10309;SDS011;5200;43.236;27.986;2023-07-20T09:11:47;7.55;;;2.55;;
10309;SDS011;5200;43.236;27.986;2023-07-20T09:14:16;9.15;;;2.60;;
10309;SDS011;5200;43.236;27.986;2023-07-20T09:16:46;10.27;;;2.92;;
10309;SDS011;5200;43.236;27.986;2023-07-20T09:19:14;5.57;;;2.97;;
10309;SDS011;5200;43.236;27.986;2023-07-20T09:21:43;6.57;;;2.80;;
10309;SDS011;5200;43.236;27.986;2023-07-20T09:24:12;7.43;;;3.25;;
10309;SDS011;5200;43.236;27.986;2023-07-20T09:26:43;10.18;;;3.80;;
10309;SDS011;5200;43.236;27.986;2023-07-20T09:29:10;10.63;;;3.47;;
10309;SDS011;5200;43.236;27.986;2023-07-20T09:31:39;8.98;;;3.05;;
10309;SDS011;5200;43.236;27.986;2023-07-20T09:34:06;10.88;;;3.30;;
10309;SDS011;5200;43.236;27.986;2023-07-20T09:36:33;13.38;;;3.80;;
10309;SDS011;5200;43.236;27.986;2023-07-20T09:39:02;15.57;;;3.53;;
10309;SDS011;5200;43.236;27.986;2023-07-20T09:41:30;10.02;;;4.40;;
10309;SDS011;5200;43.236;27.986;2023-07-20T09:44:05;7.40;;;3.13;;
10309;SDS011;5200;43.236;27.986;2023-07-20T09:46:42;9.57;;;3.28;;
10309;SDS011;5200;43.236;27.986;2023-07-20T09:49:10;9.18;;;3.03;;
10309;SDS011;5200;43.236;27.986;2023-07-20T09:51:37;8.15;;;3.38;;
10309;SDS011;5200;43.236;27.986;2023-07-20T09:54:04;9.82;;;3.45;;
10309;SDS011;5200;43.236;27.986;2023-07-20T09:56:32;8.88;;;3.60;;
10309;SDS011;5200;43.236;27.986;2023-07-20T09:58:59;6.75;;;3.40;;
10309;SDS011;5200;43.236;27.986;2023-07-20T10:01:26;8.38;;;3.30;;
10309;SDS011;5200;43.236;27.986;2023-07-20T10:03:58;12.27;;;3.70;;
10309;SDS011;5200;43.236;27.986;2023-07-20T10:06:29;7.47;;;3.92;;
10309;SDS011;5200;43.236;27.986;2023-07-20T10:09:00;13.63;;;4.43;;
10309;SDS011;5200;43.236;27.986;2023-07-20T10:11:29;7.45;;;3.05;;
10309;SDS011;5200;43.236;27.986;2023-07-20T10:13:58;10.05;;;3.83;;
10309;SDS011;5200;43.236;27.986;2023-07-20T10:16:32;17.00;;;3.60;;
10309;SDS011;5200;43.236;27.986;2023-07-20T10:19:05;11.68;;;3.38;;
10309;SDS011;5200;43.236;27.986;2023-07-20T10:21:35;6.85;;;3.42;;
10309;SDS011;5200;43.236;27.986;2023-07-20T10:24:06;9.23;;;3.55;;
10309;SDS011;5200;43.236;27.986;2023-07-20T10:26:36;11.43;;;3.50;;
10309;SDS011;5200;43.236;27.986;2023-07-20T10:29:04;7.47;;;3.95;;
10309;SDS011;5200;43.236;27.986;2023-07-20T10:31:32;6.05;;;3.67;;
10309;SDS011;5200;43.236;27.986;2023-07-20T10:34:00;8.65;;;3.63;;
10309;SDS011;5200;43.236;27.986;2023-07-20T10:36:30;8.82;;;3.30;;
10309;SDS011;5200;43.236;27.986;2023-07-20T10:38:57;7.45;;;3.20;;
10309;SDS011;5200;43.236;27.986;2023-07-20T10:41:29;5.90;;;3.47;;
10309;SDS011;5200;43.236;27.986;2023-07-20T10:44:00;8.18;;;3.15;;
10309;SDS011;5200;43.236;27.986;2023-07-20T10:46:35;9.52;;;3.38;;
10309;SDS011;5200;43.236;27.986;2023-07-20T10:49:10;9.65;;;3.40;;
10309;SDS011;5200;43.236;27.986;2023-07-20T10:51:42;6.22;;;3.20;;
10309;SDS011;5200;43.236;27.986;2023-07-20T10:54:33;4.13;;;3.38;;
10309;SDS011;5200;43.236;27.986;2023-07-20T10:59:51;6.97;;;3.35;;
10309;SDS011;5200;43.236;27.986;2023-07-20T11:02:41;7.97;;;3.28;;
10309;SDS011;5200;43.236;27.986;2023-07-20T11:08:04;6.30;;;3.30;;
10309;SDS011;5200;43.236;27.986;2023-07-20T11:10:32;5.18;;;3.10;;
10309;SDS011;5200;43.236;27.986;2023-07-20T11:13:18;12.18;;;3.72;;
10309;SDS011;5200;43.236;27.986;2023-07-20T11:15:47;9.48;;;3.45;;
10309;SDS011;5200;43.236;27.986;2023-07-20T11:18:14;6.55;;;3.13;;
10309;SDS011;5200;43.236;27.986;2023-07-20T11:20:42;9.32;;;3.50;;
10309;SDS011;5200;43.236;27.986;2023-07-20T11:23:10;7.20;;;3.30;;
10309;SDS011;5200;43.236;27.986;2023-07-20T11:25:38;8.23;;;3.92;;
10309;SDS011;5200;43.236;27.986;2023-07-20T11:28:06;6.93;;;3.55;;
10309;SDS011;5200;43.236;27.986;2023-07-20T11:30:37;10.10;;;3.70;;
10309;SDS011;5200;43.236;27.986;2023-07-20T11:33:04;11.13;;;3.17;;
10309;SDS011;5200;43.236;27.986;2023-07-20T11:35:35;4.20;;;2.78;;
10309;SDS011;5200;43.236;27.986;2023-07-20T11:38:03;12.07;;;3.42;;
10309;SDS011;5200;43.236;27.986;2023-07-20T11:40:33;9.30;;;3.65;;
10309;SDS011;5200;43.236;27.986;2023-07-20T11:43:01;4.57;;;3.47;;
10309;SDS011;5200;43.236;27.986;2023-07-20T11:45:28;10.30;;;3.53;;
10309;SDS011;5200;43.236;27.986;2023-07-20T11:47:58;6.30;;;3.47;;
10309;SDS011;5200;43.236;27.986;2023-07-20T11:50:25;7.90;;;3.35;;
10309;SDS011;5200;43.236;27.986;2023-07-20T11:52:53;9.35;;;3.15;;
10309;SDS011;5200;43.236;27.986;2023-07-20T11:55:20;9.00;;;3.85;;
10309;SDS011;5200;43.236;27.986;2023-07-20T11:58:05;7.88;;;3.30;;
10309;SDS011;5200;43.236;27.986;2023-07-20T12:00:33;13.43;;;3.70;;
10309;SDS011;5200;43.236;27.986;2023-07-20T12:03:03;9.02;;;3.17;;
10309;SDS011;5200;43.236;27.986;2023-07-20T12:05:33;7.13;;;3.38;;
10309;SDS011;5200;43.236;27.986;2023-07-20T12:08:00;7.70;;;3.33;;
10309;SDS011;5200;43.236;27.986;2023-07-20T12:10:28;7.40;;;3.53;;
10309;SDS011;5200;43.236;27.986;2023-07-20T12:13:00;11.60;;;3.63;;
10309;SDS011;5200;43.236;27.986;2023-07-20T12:15:29;8.35;;;3.30;;
10309;SDS011;5200;43.236;27.986;2023-07-20T12:17:57;5.00;;;3.28;;
10309;SDS011;5200;43.236;27.986;2023-07-20T12:20:26;9.85;;;3.08;;
10309;SDS011;5200;43.236;27.986;2023-07-20T12:22:58;12.50;;;3.58;;
10309;SDS011;5200;43.236;27.986;2023-07-20T12:25:37;8.65;;;3.58;;
10309;SDS011;5200;43.236;27.986;2023-07-20T12:28:06;9.20;;;3.35;;
10309;SDS011;5200;43.236;27.986;2023-07-20T12:30:36;10.23;;;3.28;;
10309;SDS011;5200;43.236;27.986;2023-07-20T12:33:04;9.85;;;3.20;;
10309;SDS011;5200;43.236;27.986;2023-07-20T12:35:31;10.70;;;3.50;;
10309;SDS011;5200;43.236;27.986;2023-07-20T12:37:59;8.88;;;3.60;;
10309;SDS011;5200;43.236;27.986;2023-07-20T12:40:27;10.25;;;3.10;;
10309;SDS011;5200;43.236;27.986;2023-07-20T12:42:54;6.90;;;3.22;;
10309;SDS011;5200;43.236;27.986;2023-07-20T12:45:22;9.20;;;3.90;;
10309;SDS011;5200;43.236;27.986;2023-07-20T12:47:51;8.77;;;4.00;;
10309;SDS011;5200;43.236;27.986;2023-07-20T12:50:19;10.63;;;3.80;;
10309;SDS011;5200;43.236;27.986;2023-07-20T12:52:46;13.13;;;4.85;;
10309;SDS011;5200;43.236;27.986;2023-07-20T12:55:13;7.20;;;3.50;;
10309;SDS011;5200;43.236;27.986;2023-07-20T12:57:41;7.88;;;3.63;;
10309;SDS011;5200;43.236;27.986;2023-07-20T13:00:09;13.13;;;4.05;;
10309;SDS011;5200;43.236;27.986;2023-07-20T13:02:37;8.60;;;3.72;;
10309;SDS011;5200;43.236;27.986;2023-07-20T13:05:06;10.18;;;3.92;;
10309;SDS011;5200;43.236;27.986;2023-07-20T13:07:34;12.10;;;3.78;;
10309;SDS011;5200;43.236;27.986;2023-07-20T13:10:03;11.30;;;3.80;;
10309;SDS011;5200;43.236;27.986;2023-07-20T13:12:32;4.85;;;3.80;;
10309;SDS011;5200;43.236;27.986;2023-07-20T13:15:01;6.00;;;3.60;;
10309;SDS011;5200;43.236;27.986;2023-07-20T13:17:31;10.90;;;3.78;;
10309;SDS011;5200;43.236;27.986;2023-07-20T13:19:58;7.80;;;3.88;;
10309;SDS011;5200;43.236;27.986;2023-07-20T13:22:27;9.70;;;4.25;;
10309;SDS011;5200;43.236;27.986;2023-07-20T13:24:55;9.05;;;4.90;;
10309;SDS011;5200;43.236;27.986;2023-07-20T13:27:22;8.25;;;3.88;;
10309;SDS011;5200;43.236;27.986;2023-07-20T13:29:51;10.85;;;4.88;;
10309;SDS011;5200;43.236;27.986;2023-07-20T13:32:18;12.10;;;3.75;;
10309;SDS011;5200;43.236;27.986;2023-07-20T13:34:46;14.73;;;4.10;;
10309;SDS011;5200;43.236;27.986;2023-07-20T13:37:13;7.45;;;4.10;;
10309;SDS011;5200;43.236;27.986;2023-07-20T13:39:42;10.98;;;4.40;;
10309;SDS011;5200;43.236;27.986;2023-07-20T13:42:10;7.63;;;4.10;;
10309;SDS011;5200;43.236;27.986;2023-07-20T13:44:38;11.23;;;4.55;;
10309;SDS011;5200;43.236;27.986;2023-07-20T13:47:05;4.97;;;4.38;;
10309;SDS011;5200;43.236;27.986;2023-07-20T13:49:33;6.95;;;4.07;;
10309;SDS011;5200;43.236;27.986;2023-07-20T13:52:00;8.93;;;3.97;;
10309;SDS011;5200;43.236;27.986;2023-07-20T13:54:27;6.60;;;4.38;;
10309;SDS011;5200;43.236;27.986;2023-07-20T13:56:56;8.05;;;4.35;;
10309;SDS011;5200;43.236;27.986;2023-07-20T13:59:23;5.18;;;4.40;;
10309;SDS011;5200;43.236;27.986;2023-07-20T14:01:57;9.98;;;4.65;;
10309;SDS011;5200;43.236;27.986;2023-07-20T14:04:24;10.00;;;4.68;;
10309;SDS011;5200;43.236;27.986;2023-07-20T14:06:52;8.85;;;4.32;;
10309;SDS011;5200;43.236;27.986;2023-07-20T14:09:19;7.50;;;4.45;;
10309;SDS011;5200;43.236;27.986;2023-07-20T14:11:48;15.07;;;5.03;;
10309;SDS011;5200;43.236;27.986;2023-07-20T14:14:16;10.30;;;4.60;;
10309;SDS011;5200;43.236;27.986;2023-07-20T14:16:44;7.90;;;4.30;;
10309;SDS011;5200;43.236;27.986;2023-07-20T14:19:11;13.98;;;5.05;;
10309;SDS011;5200;43.236;27.986;2023-07-20T14:21:38;5.25;;;4.20;;
10309;SDS011;5200;43.236;27.986;2023-07-20T14:24:06;8.60;;;4.32;;
10309;SDS011;5200;43.236;27.986;2023-07-20T14:26:33;8.10;;;4.47;;
10309;SDS011;5200;43.236;27.986;2023-07-20T14:29:01;9.65;;;4.50;;
10309;SDS011;5200;43.236;27.986;2023-07-20T14:31:29;9.20;;;4.75;;
10309;SDS011;5200;43.236;27.986;2023-07-20T14:33:57;8.30;;;4.97;;
10309;SDS011;5200;43.236;27.986;2023-07-20T14:36:24;6.43;;;4.78;;
10309;SDS011;5200;43.236;27.986;2023-07-20T14:38:52;8.13;;;4.53;;
10309;SDS011;5200;43.236;27.986;2023-07-20T14:41:19;6.38;;;4.60;;
10309;SDS011;5200;43.236;27.986;2023-07-20T14:43:47;9.57;;;5.50;;
10309;SDS011;5200;43.236;27.986;2023-07-20T14:46:14;9.57;;;5.28;;
10309;SDS011;5200;43.236;27.986;2023-07-20T14:48:42;7.47;;;4.65;;
10309;SDS011;5200;43.236;27.986;2023-07-20T14:51:10;6.82;;;4.88;;
10309;SDS011;5200;43.236;27.986;2023-07-20T14:53:37;6.22;;;5.05;;
10309;SDS011;5200;43.236;27.986;2023-07-20T14:56:04;6.75;;;4.63;;
10309;SDS011;5200;43.236;27.986;2023-07-20T14:58:33;10.93;;;4.72;;
10309;SDS011;5200;43.236;27.986;2023-07-20T15:01:00;9.82;;;5.22;;
10309;SDS011;5200;43.236;27.986;2023-07-20T15:03:27;6.05;;;4.45;;
10309;SDS011;5200;43.236;27.986;2023-07-20T15:05:57;6.20;;;4.65;;
10309;SDS011;5200;43.236;27.986;2023-07-20T15:08:25;7.10;;;4.38;;
10309;SDS011;5200;43.236;27.986;2023-07-20T15:10:52;6.10;;;4.47;;
10309;SDS011;5200;43.236;27.986;2023-07-20T15:13:20;7.00;;;4.80;;